createdAt,value
2023-04-22T00:00:27.514Z,56.60
2023-04-22T00:02:56.838Z,56.80
2023-04-22T00:05:24.357Z,56.70
2023-04-22T00:07:51.632Z,57.00
2023-04-22T00:10:18.828Z,57.10
2023-04-22T00:12:45.837Z,57.10
2023-04-22T00:15:13.053Z,57.10
2023-04-22T00:17:41.055Z,57.00
2023-04-22T00:20:09.033Z,57.50
2023-04-22T00:22:36.249Z,57.60
2023-04-22T00:25:05.105Z,57.50
2023-04-22T00:27:32.159Z,57.70
2023-04-22T00:29:59.316Z,57.70
2023-04-22T00:32:27.192Z,57.60
2023-04-22T00:34:54.605Z,57.70
2023-04-22T00:37:23.402Z,57.60
2023-04-22T00:39:51.112Z,57.60
2023-04-22T00:42:18.172Z,57.70
2023-04-22T00:44:47.725Z,57.60
2023-04-22T00:47:15.378Z,57.60
2023-04-22T00:49:42.876Z,57.60
2023-04-22T00:52:09.880Z,57.70
2023-04-22T00:54:37.439Z,57.70
2023-04-22T00:57:06.225Z,57.80
2023-04-22T00:59:33.935Z,57.80
2023-04-22T01:02:01.804Z,57.80
2023-04-22T01:04:28.938Z,57.50
2023-04-22T01:06:56.459Z,57.60
2023-04-22T01:09:23.736Z,57.70
2023-04-22T01:11:50.930Z,57.60
2023-04-22T01:14:18.046Z,57.70
2023-04-22T01:16:46.092Z,57.80
2023-04-22T01:19:13.205Z,57.80
2023-04-22T01:21:41.172Z,57.80
2023-04-22T01:24:09.366Z,57.70
2023-04-22T01:26:36.833Z,57.60
2023-04-22T01:29:04.528Z,57.60
2023-04-22T01:31:31.638Z,57.70
2023-04-22T01:33:59.386Z,57.90
2023-04-22T01:36:27.005Z,57.90
2023-04-22T01:38:57.828Z,58.00
2023-04-22T01:41:24.875Z,58.40
2023-04-22T01:43:53.254Z,58.40
2023-04-22T01:46:20.509Z,58.30
2023-04-22T01:48:51.756Z,58.60
2023-04-22T01:51:21.200Z,58.70
2023-04-22T01:53:51.743Z,58.80
2023-04-22T01:56:19.095Z,58.90
2023-04-22T01:58:46.162Z,59.10
2023-04-22T02:01:13.689Z,59.30
2023-04-22T02:03:41.825Z,59.20
2023-04-22T02:06:12.036Z,59.30
2023-04-22T02:08:42.101Z,59.40
2023-04-22T02:11:09.238Z,59.50
2023-04-22T02:13:37.536Z,59.70
2023-04-22T02:16:05.582Z,59.60
2023-04-22T02:18:32.898Z,59.60
2023-04-22T02:21:00.224Z,59.70
2023-04-22T02:23:27.854Z,59.90
2023-04-22T02:25:56.094Z,59.90
2023-04-22T02:28:23.294Z,59.80
2023-04-22T02:30:50.262Z,60.10
2023-04-22T02:33:17.424Z,60.00
2023-04-22T02:35:44.464Z,60.10
2023-04-22T02:38:11.994Z,60.10
2023-04-22T02:40:42.392Z,60.30
2023-04-22T02:43:09.644Z,60.00
2023-04-22T02:45:36.622Z,60.00
2023-04-22T02:48:03.668Z,60.20
2023-04-22T02:50:31.210Z,60.30
2023-04-22T02:52:58.275Z,60.40
2023-04-22T02:55:25.845Z,60.60
2023-04-22T02:57:52.994Z,60.80
2023-04-22T03:00:20.359Z,61.10
2023-04-22T03:02:47.508Z,61.20
2023-04-22T03:05:15.031Z,61.10
2023-04-22T03:07:42.259Z,61.30
2023-04-22T03:10:09.861Z,61.40
2023-04-22T03:12:37.110Z,61.40
2023-04-22T03:15:04.310Z,61.50
2023-04-22T03:17:31.574Z,61.60
2023-04-22T03:19:58.895Z,61.50
2023-04-22T03:22:26.158Z,61.60
2023-04-22T03:24:53.638Z,61.50
2023-04-22T03:27:20.705Z,61.60
2023-04-22T03:29:47.679Z,61.70
2023-04-22T03:32:14.780Z,61.90
2023-04-22T03:34:42.095Z,61.70
2023-04-22T03:37:09.639Z,61.80
2023-04-22T03:39:41.375Z,62.10
2023-04-22T03:42:09.614Z,62.10
2023-04-22T03:44:36.793Z,62.40
2023-04-22T03:47:04.126Z,62.20
2023-04-22T03:49:32.440Z,62.10
2023-04-22T03:52:00.135Z,62.10
2023-04-22T03:54:27.660Z,62.00
2023-04-22T03:56:54.644Z,62.20
2023-04-22T03:59:22.163Z,62.50
2023-04-22T04:01:51.477Z,62.50
2023-04-22T04:04:18.734Z,62.60
2023-04-22T04:06:46.428Z,62.60
2023-04-22T04:09:13.491Z,62.40
2023-04-22T04:11:40.696Z,62.40
2023-04-22T04:14:10.097Z,62.40
2023-04-22T04:16:37.458Z,62.60
2023-04-22T04:19:04.584Z,62.80
2023-04-22T04:21:33.923Z,62.80
2023-04-22T04:24:00.994Z,62.80
2023-04-22T04:26:28.016Z,62.90
2023-04-22T04:28:56.528Z,63.00
2023-04-22T04:31:25.148Z,63.00
2023-04-22T04:33:53.388Z,63.10
2023-04-22T04:36:20.367Z,63.20
2023-04-22T04:38:48.345Z,63.30
2023-04-22T04:41:15.839Z,63.70
2023-04-22T04:43:43.332Z,63.70
2023-04-22T04:46:10.500Z,64.00
2023-04-22T04:48:37.845Z,64.00
2023-04-22T04:51:06.573Z,64.00
2023-04-22T04:53:33.737Z,63.90
2023-04-22T04:56:01.305Z,64.00
2023-04-22T04:58:30.433Z,64.20
2023-04-22T05:00:57.648Z,64.20
2023-04-22T05:03:24.849Z,64.30
2023-04-22T05:05:52.166Z,64.50
2023-04-22T05:08:19.421Z,64.70
2023-04-22T05:10:46.699Z,64.80
2023-04-22T05:13:14.221Z,65.00
2023-04-22T05:15:41.497Z,65.10
2023-04-22T05:18:08.747Z,65.10
2023-04-22T05:20:36.303Z,65.10
2023-04-22T05:23:03.490Z,65.10
2023-04-22T05:25:31.019Z,65.20
2023-04-22T05:27:58.300Z,65.40
2023-04-22T05:30:25.619Z,65.30
2023-04-22T05:32:52.695Z,65.20
2023-04-22T05:35:22.900Z,65.40
2023-04-22T05:37:56.174Z,65.60
2023-04-22T05:40:26.613Z,65.50
2023-04-22T05:42:53.793Z,65.50
2023-04-22T05:45:20.839Z,65.40
2023-04-22T05:47:48.028Z,65.50
2023-04-22T05:50:15.493Z,65.40
2023-04-22T05:52:42.955Z,65.40
2023-04-22T05:55:12.270Z,65.40
2023-04-22T05:57:42.473Z,65.50
2023-04-22T06:00:12.829Z,65.30
2023-04-22T06:02:40.420Z,65.20
2023-04-22T06:05:08.002Z,65.10
2023-04-22T06:07:35.358Z,65.20
2023-04-22T06:10:05.336Z,65.30
2023-04-22T06:12:33.727Z,65.20
2023-04-22T06:15:01.135Z,65.00
2023-04-22T06:17:28.324Z,65.00
2023-04-22T06:19:56.962Z,64.90
2023-04-22T06:22:24.723Z,64.80
2023-04-22T06:24:51.719Z,64.70
2023-04-22T06:27:18.751Z,64.70
2023-04-22T06:29:46.014Z,64.60
2023-04-22T06:32:13.709Z,64.60
2023-04-22T06:34:41.247Z,64.50
2023-04-22T06:37:12.249Z,64.50
2023-04-22T06:39:39.961Z,64.60
2023-04-22T06:42:08.196Z,64.40
2023-04-22T06:44:35.270Z,64.50
2023-04-22T06:47:02.589Z,64.40
2023-04-22T06:49:29.929Z,64.40
2023-04-22T06:51:57.157Z,64.40
2023-04-22T06:54:24.227Z,64.40
2023-04-22T06:56:51.221Z,64.30
2023-04-22T06:59:19.261Z,64.30
2023-04-22T07:01:46.756Z,64.30
2023-04-22T07:04:13.822Z,64.20
2023-04-22T07:06:41.199Z,64.20
2023-04-22T07:09:08.557Z,64.10
2023-04-22T07:11:35.681Z,64.20
2023-04-22T07:14:02.766Z,64.30
2023-04-22T07:16:29.907Z,64.30
2023-04-22T07:18:57.949Z,64.20
2023-04-22T07:21:25.078Z,64.20
2023-04-22T07:23:52.328Z,64.30
2023-04-22T07:26:20.383Z,64.20
2023-04-22T07:28:47.711Z,64.10
2023-04-22T07:31:20.751Z,64.10
2023-04-22T07:33:48.002Z,64.00
2023-04-22T07:36:15.202Z,64.00
2023-04-22T07:38:42.365Z,64.10
2023-04-22T07:41:17.568Z,64.10
2023-04-22T07:43:44.926Z,64.10
2023-04-22T07:46:12.570Z,63.90
2023-04-22T07:48:42.189Z,63.90
2023-04-22T07:51:13.442Z,63.90
2023-04-22T07:53:44.392Z,63.90
2023-04-22T07:56:15.399Z,63.90
2023-04-22T07:58:43.968Z,64.00
2023-04-22T08:01:11.139Z,64.20
2023-04-22T08:03:38.435Z,64.00
2023-04-22T08:06:05.927Z,64.10
2023-04-22T08:08:33.055Z,64.10
2023-04-22T08:10:59.956Z,64.10
2023-04-22T08:13:27.192Z,64.10
2023-04-22T08:15:54.580Z,64.00
2023-04-22T08:18:22.284Z,63.90
2023-04-22T08:20:50.801Z,64.10
2023-04-22T08:23:18.101Z,64.20
2023-04-22T08:25:45.647Z,63.90
2023-04-22T08:28:13.030Z,64.00
2023-04-22T08:30:40.074Z,63.80
2023-04-22T08:33:07.315Z,63.80
2023-04-22T08:35:38.214Z,63.70
2023-04-22T08:38:05.552Z,63.80
2023-04-22T08:40:32.657Z,63.50
2023-04-22T08:42:59.646Z,63.40
2023-04-22T08:45:27.593Z,63.10
2023-04-22T08:47:54.817Z,63.00
2023-04-22T08:50:25.742Z,62.90
2023-04-22T08:52:52.758Z,63.00
2023-04-22T08:55:19.849Z,62.80
2023-04-22T08:57:48.139Z,62.80
2023-04-22T09:00:16.219Z,62.30
2023-04-22T09:02:47.125Z,62.10
2023-04-22T09:05:15.151Z,62.00
2023-04-22T09:07:42.869Z,61.70
2023-04-22T09:10:12.119Z,61.80
2023-04-22T09:12:41.315Z,61.50
2023-04-22T09:15:09.541Z,61.40
2023-04-22T09:17:39.718Z,61.50
2023-04-22T09:20:07.904Z,61.50
2023-04-22T09:22:42.780Z,61.30
2023-04-22T09:25:23.334Z,61.10
2023-04-22T09:27:57.624Z,60.90
2023-04-22T09:30:26.832Z,60.50
2023-04-22T09:32:55.518Z,60.20
2023-04-22T09:35:31.840Z,59.70
2023-04-22T09:37:59.677Z,59.70
2023-04-22T09:40:27.250Z,59.10
2023-04-22T09:42:55.883Z,58.70
2023-04-22T09:45:40.848Z,58.00
2023-04-22T09:48:11.285Z,57.80
2023-04-22T09:50:39.859Z,57.50
2023-04-22T09:53:08.898Z,57.00
2023-04-22T09:55:38.973Z,56.70
2023-04-22T09:58:08.702Z,56.50
2023-04-22T10:00:40.848Z,56.20
2023-04-22T10:03:10.755Z,56.00
2023-04-22T10:05:40.858Z,55.80
2023-04-22T10:08:08.976Z,55.70
2023-04-22T10:10:37.321Z,55.10
2023-04-22T10:13:05.151Z,55.10
2023-04-22T10:15:37.255Z,54.70
2023-04-22T10:18:06.992Z,54.30
2023-04-22T10:20:36.804Z,53.10
2023-04-22T10:23:07.212Z,52.80
2023-04-22T10:25:34.464Z,52.60
2023-04-22T10:28:06.027Z,52.80
2023-04-22T10:30:34.337Z,52.90
2023-04-22T10:33:20.085Z,52.40
2023-04-22T10:36:06.238Z,52.10
2023-04-22T10:38:36.903Z,51.70
2023-04-22T10:41:04.233Z,51.30
2023-04-22T10:43:41.893Z,50.80
2023-04-22T10:46:28.998Z,50.10
2023-04-22T10:48:59.718Z,49.70
2023-04-22T10:51:40.182Z,49.30
2023-04-22T10:54:07.969Z,48.80
2023-04-22T10:56:36.293Z,48.60
2023-04-22T10:59:16.303Z,48.10
2023-04-22T11:01:46.208Z,47.80
2023-04-22T11:04:20.868Z,47.40
2023-04-22T11:07:08.105Z,47.10
2023-04-22T11:09:41.852Z,46.90
2023-04-22T11:12:27.995Z,46.50
2023-04-22T11:14:55.798Z,46.50
2023-04-22T11:17:23.069Z,46.40
2023-04-22T11:19:52.628Z,46.00
2023-04-22T11:22:19.932Z,45.40
2023-04-22T11:25:00.324Z,44.80
2023-04-22T11:27:27.761Z,44.80
2023-04-22T11:30:01.285Z,44.20
2023-04-22T11:32:29.296Z,44.30
2023-04-22T11:34:58.382Z,43.80
2023-04-22T11:37:26.175Z,43.60
2023-04-22T11:40:13.646Z,43.40
2023-04-22T11:42:42.620Z,43.20
2023-04-22T11:45:11.056Z,42.80
2023-04-22T11:47:38.148Z,42.30
2023-04-22T11:50:07.481Z,41.90
2023-04-22T11:52:48.620Z,41.90
2023-04-22T11:55:16.494Z,41.80
2023-04-22T11:57:43.583Z,41.40
2023-04-22T12:00:15.269Z,41.20
2023-04-22T12:02:42.436Z,40.60
2023-04-22T12:05:13.325Z,40.40
2023-04-22T12:07:40.450Z,39.90
2023-04-22T12:10:08.339Z,39.90
2023-04-22T12:12:40.073Z,39.90
2023-04-22T12:15:13.534Z,39.30
2023-04-22T12:17:41.213Z,39.70
2023-04-22T12:20:11.753Z,39.70
2023-04-22T12:22:39.476Z,38.90
2023-04-22T12:25:07.244Z,38.40
2023-04-22T12:27:35.435Z,38.20
2023-04-22T12:30:03.434Z,38.30
2023-04-22T12:32:30.462Z,38.20
2023-04-22T12:34:57.632Z,37.90
2023-04-22T12:37:24.711Z,37.50
2023-04-22T12:39:52.146Z,37.30
2023-04-22T12:42:19.148Z,36.70
2023-04-22T12:44:47.128Z,35.90
2023-04-22T12:47:14.579Z,34.80
2023-04-22T12:49:42.540Z,35.00
2023-04-22T12:52:11.376Z,35.40
2023-04-22T12:54:38.573Z,35.70
2023-04-22T12:57:06.251Z,36.00
2023-04-22T12:59:33.320Z,35.10
2023-04-22T13:02:00.726Z,35.00
2023-04-22T13:04:27.869Z,34.80
2023-04-22T13:06:58.038Z,34.60
2023-04-22T13:09:25.886Z,34.60
2023-04-22T13:11:53.193Z,34.80
2023-04-22T13:14:20.496Z,35.00
2023-04-22T13:16:47.478Z,35.00
2023-04-22T13:19:15.290Z,35.10
2023-04-22T13:21:43.502Z,34.70
2023-04-22T13:24:10.761Z,34.30
2023-04-22T13:26:39.333Z,34.40
2023-04-22T13:29:11.374Z,34.40
2023-04-22T13:31:39.061Z,34.10
2023-04-22T13:34:06.193Z,33.70
2023-04-22T13:36:33.406Z,33.90
2023-04-22T13:39:00.872Z,33.60
2023-04-22T13:41:27.896Z,33.50
2023-04-22T13:43:56.325Z,33.60
2023-04-22T13:46:23.965Z,33.70
2023-04-22T13:48:51.608Z,33.50
2023-04-22T13:51:18.764Z,33.40
2023-04-22T13:53:46.785Z,33.10
2023-04-22T13:56:13.901Z,32.90
2023-04-22T13:58:42.692Z,33.10
2023-04-22T14:01:10.072Z,33.30
2023-04-22T14:03:37.450Z,33.50
2023-04-22T14:06:05.138Z,33.60
2023-04-22T14:08:32.735Z,33.70
2023-04-22T14:10:59.911Z,33.60
2023-04-22T14:13:27.389Z,33.50
2023-04-22T14:15:54.512Z,33.20
2023-04-22T14:18:24.513Z,33.30
2023-04-22T14:20:52.901Z,33.10
2023-04-22T14:23:20.303Z,33.40
2023-04-22T14:25:49.184Z,33.60
2023-04-22T14:28:17.047Z,33.70
2023-04-22T14:30:44.557Z,33.60
2023-04-22T14:33:12.592Z,33.70
2023-04-22T14:35:40.142Z,33.90
2023-04-22T14:38:08.877Z,34.20
2023-04-22T14:40:36.350Z,34.90
2023-04-22T14:43:04.749Z,35.00
2023-04-22T14:45:32.437Z,35.20
2023-04-22T14:47:59.702Z,35.20
2023-04-22T14:50:27.412Z,35.20
2023-04-22T14:52:54.843Z,35.00
2023-04-22T14:55:24.007Z,35.00
2023-04-22T14:57:52.611Z,35.20
2023-04-22T15:00:19.821Z,35.30
2023-04-22T15:02:47.267Z,35.10
2023-04-22T15:05:14.697Z,35.00
2023-04-22T15:07:41.878Z,35.00
2023-04-22T15:10:10.625Z,35.00
2023-04-22T15:12:37.669Z,35.30
2023-04-22T15:15:04.941Z,35.30
2023-04-22T15:17:32.243Z,35.40
2023-04-22T15:19:59.788Z,35.30
2023-04-22T15:22:27.355Z,35.20
2023-04-22T15:24:54.440Z,35.50
2023-04-22T15:27:22.292Z,35.60
2023-04-22T15:29:49.439Z,35.80
2023-04-22T15:32:17.025Z,35.90
2023-04-22T15:34:44.162Z,35.90
2023-04-22T15:37:13.454Z,35.80
2023-04-22T15:39:43.927Z,35.80
2023-04-22T15:42:11.021Z,35.80
2023-04-22T15:44:38.424Z,36.00
2023-04-22T15:47:05.814Z,36.20
2023-04-22T15:49:33.539Z,36.50
2023-04-22T15:52:01.693Z,36.60
2023-04-22T15:54:28.695Z,36.50
2023-04-22T15:56:55.735Z,36.60
2023-04-22T15:59:22.907Z,36.40
2023-04-22T16:01:50.942Z,36.40
2023-04-22T16:04:19.241Z,36.50
2023-04-22T16:06:48.422Z,36.50
2023-04-22T16:09:17.237Z,36.40
2023-04-22T16:11:44.425Z,36.50
2023-04-22T16:14:12.502Z,36.60
2023-04-22T16:16:40.102Z,36.70
2023-04-22T16:19:08.991Z,36.90
2023-04-22T16:21:36.017Z,37.00
2023-04-22T16:24:03.105Z,37.10
2023-04-22T16:26:30.609Z,37.10
2023-04-22T16:28:58.027Z,37.20
2023-04-22T16:31:25.713Z,37.20
2023-04-22T16:33:52.937Z,37.20
2023-04-22T16:36:22.784Z,37.40
2023-04-22T16:38:50.153Z,37.50
2023-04-22T16:41:17.642Z,37.60
2023-04-22T16:43:44.920Z,37.80
2023-04-22T16:46:12.702Z,37.90
2023-04-22T16:48:40.496Z,38.00
2023-04-22T16:51:07.861Z,38.20
2023-04-22T16:53:36.336Z,38.40
2023-04-22T16:56:03.974Z,38.60
2023-04-22T16:58:31.127Z,38.90
2023-04-22T17:00:58.474Z,39.20
2023-04-22T17:03:26.417Z,39.60
2023-04-22T17:05:53.724Z,39.80
2023-04-22T17:08:20.796Z,40.10
2023-04-22T17:10:48.766Z,40.20
2023-04-22T17:13:16.296Z,40.50
2023-04-22T17:15:43.515Z,40.80
2023-04-22T17:18:11.047Z,41.20
2023-04-22T17:20:39.477Z,41.50
2023-04-22T17:23:06.553Z,41.90
2023-04-22T17:25:33.735Z,42.30
2023-04-22T17:28:02.337Z,42.80
2023-04-22T17:30:29.648Z,43.40
2023-04-22T17:32:57.200Z,43.90
2023-04-22T17:35:25.180Z,44.60
2023-04-22T17:37:54.033Z,45.10
2023-04-22T17:40:22.174Z,45.50
2023-04-22T17:42:49.240Z,45.80
2023-04-22T17:45:19.510Z,46.10
2023-04-22T17:47:48.861Z,46.40
2023-04-22T17:50:16.050Z,46.60
2023-04-22T17:52:44.079Z,46.70
2023-04-22T17:55:11.529Z,46.80
2023-04-22T17:57:38.708Z,46.90
2023-04-22T18:00:06.370Z,47.10
2023-04-22T18:02:33.867Z,47.30
2023-04-22T18:05:01.323Z,47.60
2023-04-22T18:07:28.698Z,47.90
2023-04-22T18:09:56.204Z,48.00
2023-04-22T18:12:28.574Z,48.20
2023-04-22T18:14:57.482Z,48.50
2023-04-22T18:17:26.086Z,48.90
2023-04-22T18:20:02.786Z,49.20
2023-04-22T18:22:33.500Z,49.40
2023-04-22T18:25:02.168Z,49.60
2023-04-22T18:27:29.721Z,49.80
2023-04-22T18:29:56.938Z,50.00
2023-04-22T18:32:24.752Z,50.30
2023-04-22T18:34:52.018Z,50.50
2023-04-22T18:37:19.015Z,50.80
2023-04-22T18:39:46.612Z,51.00
2023-04-22T18:42:13.773Z,51.60
2023-04-22T18:44:41.673Z,51.90
2023-04-22T18:47:09.178Z,52.20
2023-04-22T18:49:36.203Z,52.50
2023-04-22T18:52:03.902Z,52.80
2023-04-22T18:54:31.155Z,53.10
2023-04-22T18:56:58.486Z,53.40
2023-04-22T18:59:25.786Z,53.60
2023-04-22T19:01:53.082Z,53.80
2023-04-22T19:04:20.385Z,53.90
2023-04-22T19:06:48.515Z,54.00
2023-04-22T19:09:16.156Z,54.00
2023-04-22T19:11:43.716Z,54.10
2023-04-22T19:14:10.825Z,54.20
2023-04-22T19:16:38.350Z,54.50
2023-04-22T19:19:05.792Z,54.70
2023-04-22T19:21:34.848Z,54.80
2023-04-22T19:24:01.992Z,55.10
2023-04-22T19:26:29.955Z,55.20
2023-04-22T19:28:57.275Z,55.30
2023-04-22T19:31:25.756Z,55.40
2023-04-22T19:33:53.837Z,55.50
2023-04-22T19:36:21.176Z,55.70
2023-04-22T19:38:48.348Z,55.80
2023-04-22T19:41:15.450Z,56.10
2023-04-22T19:43:43.133Z,56.30
2023-04-22T19:46:13.256Z,56.60
2023-04-22T19:48:43.335Z,57.00
2023-04-22T19:51:11.915Z,57.20
2023-04-22T19:53:40.106Z,57.30
2023-04-22T19:56:18.247Z,57.30
2023-04-22T19:58:47.375Z,57.50
2023-04-22T20:01:15.280Z,57.80
2023-04-22T20:03:43.664Z,58.10
2023-04-22T20:06:13.070Z,58.30
2023-04-22T20:08:44.184Z,58.50
2023-04-22T20:11:12.755Z,58.50
2023-04-22T20:13:42.008Z,58.80
2023-04-22T20:16:14.388Z,58.80
2023-04-22T20:18:44.543Z,59.00
2023-04-22T20:21:12.094Z,59.20
2023-04-22T20:23:42.674Z,59.20
2023-04-22T20:26:10.325Z,59.50
2023-04-22T20:28:45.486Z,59.50
2023-04-22T20:31:13.747Z,59.60
2023-04-22T20:33:41.353Z,59.90
2023-04-22T20:36:08.868Z,59.90
2023-04-22T20:38:39.440Z,60.10
2023-04-22T20:41:07.668Z,60.20
2023-04-22T20:43:37.827Z,60.20
2023-04-22T20:46:05.655Z,60.30
2023-04-22T20:48:33.060Z,60.60
2023-04-22T20:51:00.221Z,60.60
2023-04-22T20:53:28.459Z,60.60
2023-04-22T20:55:56.099Z,60.70
2023-04-22T20:58:23.130Z,60.80
2023-04-22T21:00:50.626Z,60.90
2023-04-22T21:03:19.179Z,61.10
2023-04-22T21:05:47.015Z,61.20
2023-04-22T21:08:21.622Z,61.30
2023-04-22T21:10:49.821Z,61.40
2023-04-22T21:13:17.882Z,61.60
2023-04-22T21:15:47.768Z,61.70
2023-04-22T21:18:15.647Z,61.80
2023-04-22T21:20:46.820Z,61.90
2023-04-22T21:23:14.378Z,61.90
2023-04-22T21:25:41.669Z,62.00
2023-04-22T21:28:09.597Z,62.00
2023-04-22T21:30:37.063Z,62.10
2023-04-22T21:33:04.719Z,62.00
2023-04-22T21:35:31.996Z,62.00
2023-04-22T21:37:59.268Z,61.90
2023-04-22T21:40:26.598Z,61.70
2023-04-22T21:42:53.746Z,61.80
2023-04-22T21:45:21.150Z,61.90
2023-04-22T21:47:48.421Z,62.10
2023-04-22T21:50:15.646Z,62.10
2023-04-22T21:52:42.823Z,62.00
2023-04-22T21:55:12.045Z,62.00
2023-04-22T21:57:39.625Z,62.10
2023-04-22T22:00:18.061Z,61.90
2023-04-22T22:02:46.487Z,62.00
2023-04-22T22:05:14.303Z,61.70
2023-04-22T22:07:43.247Z,61.70
2023-04-22T22:10:12.976Z,61.70
2023-04-22T22:12:40.295Z,61.70
2023-04-22T22:15:10.083Z,61.80
2023-04-22T22:17:40.077Z,61.80
2023-04-22T22:20:11.683Z,61.70
2023-04-22T22:22:41.015Z,61.90
2023-04-22T22:25:09.903Z,61.80
2023-04-22T22:27:41.321Z,61.90
2023-04-22T22:30:08.913Z,61.80
2023-04-22T22:32:36.611Z,61.70
2023-04-22T22:35:04.335Z,61.70
2023-04-22T22:37:31.751Z,61.80
2023-04-22T22:39:59.419Z,61.80
2023-04-22T22:42:26.995Z,61.80
2023-04-22T22:44:54.246Z,61.70
2023-04-22T22:47:21.545Z,61.50
2023-04-22T22:49:48.620Z,61.50
2023-04-22T22:52:15.763Z,61.50
2023-04-22T22:54:43.553Z,61.60
2023-04-22T22:57:11.981Z,61.50
2023-04-22T22:59:39.496Z,61.60
2023-04-22T23:02:06.782Z,61.40
2023-04-22T23:04:34.036Z,61.60
2023-04-22T23:07:02.157Z,61.80
2023-04-22T23:09:29.434Z,61.60
2023-04-22T23:11:56.906Z,61.60
2023-04-22T23:14:24.496Z,61.80
2023-04-22T23:16:51.540Z,62.00
2023-04-22T23:19:18.835Z,62.10
2023-04-22T23:21:47.028Z,62.20
2023-04-22T23:24:15.254Z,62.20
2023-04-22T23:26:42.860Z,62.30
2023-04-22T23:29:14.354Z,62.40
2023-04-22T23:31:42.368Z,62.50
2023-04-22T23:34:09.711Z,62.40
2023-04-22T23:36:37.801Z,62.40
2023-04-22T23:39:08.234Z,62.40
2023-04-22T23:41:35.551Z,62.50
2023-04-22T23:44:02.780Z,62.60
2023-04-22T23:46:29.863Z,62.70
2023-04-22T23:48:57.809Z,62.90
2023-04-22T23:51:25.324Z,63.10
2023-04-22T23:53:52.300Z,63.20
2023-04-22T23:56:21.503Z,63.30
2023-04-22T23:58:49.408Z,63.50
